Time;durP1;ratioP1;P1;durP2;ratioP2;P2;SDS_P1;SDS_P2;PMS_P1;PMS_P2;Temp;Humidity;BMP_temperature;BMP_pressure;BME280_temperature;BME280_humidity;BME280_pressure;Samples;Min_cycle;Max_cycle;Signal;HPM_P1;HPM_P2
2022/01/12 00:01:37;;;;;;;25.05;14.52;;;3.80;99.90;;;;;;5077006;28;20025;-58
2022/01/12 00:04:03;;;;;;;27.17;14.73;;;3.90;99.90;;;;;;5076824;28;20029;-58
2022/01/12 00:06:29;;;;;;;25.30;14.77;;;4.00;99.90;;;;;;5076078;28;20036;-58
2022/01/12 00:08:56;;;;;;;24.35;14.38;;;4.20;99.90;;;;;;5075950;28;20039;-59
2022/01/12 00:11:22;;;;;;;27.25;15.07;;;4.20;99.90;;;;;;5076898;28;20269;-58
2022/01/12 00:13:53;;;;;;;27.48;15.18;;;4.20;99.90;;;;;;5076633;28;20048;-58
2022/01/12 00:16:19;;;;;;;24.02;14.50;;;4.10;99.90;;;;;;5077422;28;20040;-58
2022/01/12 00:18:45;;;;;;;25.27;14.23;;;4.00;99.90;;;;;;5076717;28;20408;-58
2022/01/12 00:21:17;;;;;;;28.13;15.73;;;4.10;99.90;;;;;;5075964;28;20422;-58
2022/01/12 00:23:43;;;;;;;24.50;15.25;;;4.30;99.90;;;;;;5079852;28;20314;-58
2022/01/12 00:26:13;;;;;;;29.67;15.52;;;4.40;99.90;;;;;;5080753;28;20109;-58
2022/01/12 00:34:26;;;;;;;30.08;16.30;;;4.90;99.90;;;;;;5079927;28;20094;-57
2022/01/12 00:36:52;;;;;;;32.75;17.13;;;4.80;99.90;;;;;;5079671;28;20033;-58
2022/01/12 00:39:18;;;;;;;29.88;16.20;;;4.70;99.90;;;;;;5079592;28;20111;-57
2022/01/12 00:41:44;;;;;;;27.70;16.25;;;4.40;99.90;;;;;;5063069;28;20028;-58
2022/01/12 00:44:21;;;;;;;28.23;16.08;;;4.20;99.90;;;;;;5079581;28;20024;-58
2022/01/12 00:46:47;;;;;;;30.92;16.48;;;4.20;99.90;;;;;;5079656;28;20028;-58
2022/01/12 00:49:13;;;;;;;30.45;16.05;;;4.30;99.90;;;;;;5080254;28;20036;-58
2022/01/12 00:51:39;;;;;;;29.85;16.35;;;4.40;99.90;;;;;;5080623;28;20262;-58
2022/01/12 00:54:09;;;;;;;30.77;17.10;;;4.20;99.90;;;;;;5080190;28;20033;-58
2022/01/12 00:56:35;;;;;;;30.98;16.55;;;4.00;99.90;;;;;;5080211;28;20028;-58
2022/01/12 00:59:02;;;;;;;31.52;16.95;;;4.10;99.90;;;;;;5080075;28;20048;-59
2022/01/12 01:01:28;;;;;;;32.55;17.42;;;3.90;99.90;;;;;;5080226;28;20115;-59
2022/01/12 01:03:55;;;;;;;32.13;18.33;;;4.10;99.90;;;;;;5079956;28;20120;-59
2022/01/12 01:06:22;;;;;;;33.85;18.05;;;4.10;99.90;;;;;;5079231;28;20028;-59
2022/01/12 01:08:51;;;;;;;34.63;17.92;;;4.00;99.90;;;;;;5079977;28;20025;-59
2022/01/12 01:11:19;;;;;;;36.80;19.27;;;4.10;99.90;;;;;;5079631;28;20020;-59
2022/01/12 01:13:58;;;;;;;34.17;18.73;;;4.20;99.90;;;;;;5062617;28;20037;-58
2022/01/12 01:27:28;;;;;;;37.00;19.95;;;3.10;99.90;;;;;;5078734;28;20051;-58
2022/01/12 01:29:55;;;;;;;37.88;20.40;;;3.20;99.90;;;;;;5062124;28;20384;-57
2022/01/12 01:32:23;;;;;;;38.47;19.73;;;3.10;99.90;;;;;;5078583;28;20156;-59
2022/01/12 01:34:50;;;;;;;41.15;20.48;;;3.00;99.90;;;;;;5062387;28;20044;-59
2022/01/12 01:37:18;;;;;;;37.35;19.65;;;3.20;99.90;;;;;;5046314;28;20431;-58
2022/01/12 01:39:46;;;;;;;41.53;21.67;;;3.50;99.90;;;;;;5078739;28;20078;-58
2022/01/12 01:42:21;;;;;;;41.50;21.00;;;3.60;99.90;;;;;;5078982;28;20047;-59
2022/01/12 01:55:33;;;;;;;41.55;21.25;;;3.20;99.90;;;;;;5079765;28;20032;-59
2022/01/12 01:57:59;;;;;;;41.28;21.52;;;3.10;99.90;;;;;;5061549;28;20028;-59
2022/01/12 02:00:27;;;;;;;40.53;20.33;;;3.00;99.90;;;;;;5078264;28;20044;-58
2022/01/12 02:03:00;;;;;;;42.88;21.00;;;2.90;99.90;;;;;;5078205;28;20029;-59
2022/01/12 02:05:52;;;;;;;43.60;21.75;;;2.80;99.90;;;;;;5063736;28;20126;-59
2022/01/12 02:08:19;;;;;;;40.72;20.73;;;2.70;99.90;;;;;;5078080;28;20036;-60
2022/01/12 02:10:59;;;;;;;44.30;21.33;;;2.80;99.90;;;;;;5063291;28;20411;-60
2022/01/12 02:13:26;;;;;;;42.25;21.80;;;2.90;99.90;;;;;;5077932;28;20052;-59
2022/01/12 02:15:54;;;;;;;44.95;21.00;;;2.80;99.90;;;;;;5079322;28;20033;-59
2022/01/12 02:18:35;;;;;;;44.92;21.35;;;2.70;99.90;;;;;;5078468;28;20300;-61
2022/01/12 02:40:38;;;;;;;50.38;22.52;;;2.80;99.90;;;;;;5078261;28;20102;-60
2022/01/12 02:43:14;;;;;;;41.45;20.50;;;2.80;99.90;;;;;;5077483;28;20032;-59
2022/01/12 02:53:50;;;;;;;42.10;21.27;;;3.50;99.90;;;;;;5077270;28;20293;-57
2022/01/12 02:56:27;;;;;;;46.15;22.10;;;3.70;99.90;;;;;;5077156;28;20046;-58
2022/01/12 02:58:55;;;;;;;45.55;21.08;;;4.00;99.90;;;;;;5077860;28;20355;-59
2022/01/12 03:04:09;;;;;;;43.75;21.75;;;4.00;99.90;;;;;;5076973;28;20367;-58
2022/01/12 03:06:38;;;;;;;45.30;22.08;;;4.00;99.90;;;;;;5077740;28;20043;-58
2022/01/12 03:09:06;;;;;;;43.00;21.73;;;3.90;99.90;;;;;;5077602;28;20380;-58
2022/01/12 03:11:34;;;;;;;43.25;21.33;;;3.70;99.90;;;;;;5076869;28;20078;-58
2022/01/12 03:14:10;;;;;;;44.78;20.80;;;3.80;99.90;;;;;;5076800;28;20020;-58
2022/01/12 03:16:36;;;;;;;44.65;20.70;;;3.70;99.90;;;;;;5076782;28;20056;-58
2022/01/12 03:19:07;;;;;;;47.67;22.80;;;3.60;99.90;;;;;;5076665;28;20029;-58
2022/01/12 03:21:34;;;;;;;47.55;22.25;;;3.30;99.90;;;;;;5076689;28;20126;-58
2022/01/12 03:24:01;;;;;;;42.60;20.70;;;3.10;99.90;;;;;;5076545;28;20032;-59
2022/01/12 03:26:29;;;;;;;39.15;19.88;;;3.00;99.90;;;;;;5043575;28;20037;-59
2022/01/12 03:28:56;;;;;;;41.58;21.45;;;3.00;99.90;;;;;;5076461;28;20028;-58
2022/01/12 03:31:30;;;;;;;44.65;20.67;;;2.90;99.90;;;;;;5076839;28;20032;-58
2022/01/12 03:34:22;;;;;;;45.97;21.15;;;3.00;99.90;;;;;;5076408;28;20029;-58
2022/01/12 03:39:34;;;;;;;42.70;20.55;;;2.70;99.90;;;;;;5077155;28;20043;-59
2022/01/12 03:42:00;;;;;;;41.97;20.20;;;2.80;99.90;;;;;;5059769;28;20025;-59
2022/01/12 03:44:26;;;;;;;42.60;20.58;;;2.70;99.90;;;;;;5076284;28;20056;-59
2022/01/12 03:46:53;;;;;;;45.13;21.05;;;2.80;99.90;;;;;;5077621;28;20090;-59
2022/01/12 03:49:20;;;;;;;46.05;21.17;;;2.70;99.90;;;;;;5076179;28;20033;-59
2022/01/12 03:51:47;;;;;;;39.28;20.88;;;2.90;99.90;;;;;;5076244;28;20044;-59
2022/01/12 03:54:14;;;;;;;47.75;21.65;;;3.00;99.90;;;;;;5076148;28;20087;-60
2022/01/12 03:56:41;;;;;;;42.45;20.75;;;3.20;99.90;;;;;;5075257;28;20331;-59
2022/01/12 03:59:07;;;;;;;41.17;20.58;;;3.30;99.90;;;;;;5076095;28;20039;-59
2022/01/12 04:01:37;;;;;;;41.50;20.90;;;3.40;99.90;;;;;;5076090;28;20032;-59
2022/01/12 04:04:08;;;;;;;42.30;20.83;;;3.50;99.90;;;;;;5076113;28;20036;-59
2022/01/12 04:09:19;;;;;;;39.70;19.13;;;3.60;99.90;;;;;;5076037;28;20312;-59
2022/01/12 04:11:45;;;;;;;41.35;20.83;;;3.40;99.90;;;;;;5077063;28;20025;-58
2022/01/12 04:14:12;;;;;;;41.88;20.73;;;3.40;99.90;;;;;;5076037;28;20047;-59
2022/01/12 04:16:39;;;;;;;43.03;21.45;;;3.50;99.90;;;;;;5076028;28;20093;-59
2022/01/12 04:19:06;;;;;;;38.17;19.63;;;3.60;99.90;;;;;;5075919;28;20308;-59
2022/01/12 04:21:40;;;;;;;41.90;20.55;;;3.50;99.90;;;;;;5075965;28;20059;-58
2022/01/12 04:24:06;;;;;;;43.55;20.55;;;3.30;99.90;;;;;;5075939;28;20116;-59
2022/01/12 04:26:31;;;;;;;41.45;20.50;;;3.30;99.90;;;;;;5076662;28;20112;-59
2022/01/12 04:28:57;;;;;;;82.70;44.50;;;3.20;99.90;;;;;;5075320;28;20043;-60
2022/01/12 04:31:24;;;;;;;42.65;22.02;;;3.40;99.90;;;;;;5075682;28;20039;-59
2022/01/12 04:33:50;;;;;;;42.72;20.65;;;3.50;99.90;;;;;;5075853;28;20040;-59
2022/01/12 04:36:18;;;;;;;39.92;19.88;;;3.70;99.90;;;;;;5076602;28;20028;-60
2022/01/12 04:38:45;;;;;;;42.83;20.30;;;3.70;99.90;;;;;;5075654;28;20045;-59
2022/01/12 04:41:12;;;;;;;43.15;21.27;;;3.70;99.90;;;;;;5075747;28;20021;-59
2022/01/12 04:43:41;;;;;;;40.42;20.83;;;3.60;99.90;;;;;;5075687;28;20040;-59
2022/01/12 04:51:20;;;;;;;41.03;19.25;;;3.20;99.90;;;;;;5076412;28;20059;-59
2022/01/12 04:53:46;;;;;;;42.30;20.23;;;3.10;99.90;;;;;;5076330;28;20025;-59
2022/01/12 04:56:13;;;;;;;40.72;20.25;;;3.00;99.90;;;;;;5058947;28;20307;-60
2022/01/12 04:58:39;;;;;;;39.13;19.88;;;3.10;99.90;;;;;;5075498;28;20071;-59
2022/01/12 05:01:08;;;;;;;41.75;20.08;;;3.20;99.90;;;;;;5075481;28;20052;-59
2022/01/12 05:06:42;;;;;;;40.70;19.98;;;3.00;99.90;;;;;;5075763;28;20024;-59
2022/01/12 05:14:43;;;;;;;40.65;20.75;;;3.30;99.90;;;;;;5079556;28;20048;-59
2022/01/12 05:17:09;;;;;;;46.67;20.60;;;3.40;99.90;;;;;;5080459;28;20028;-59
2022/01/12 05:19:35;;;;;;;41.97;20.85;;;3.30;99.90;;;;;;5078938;28;20040;-59
2022/01/12 05:22:01;;;;;;;47.55;20.38;;;3.30;99.90;;;;;;5078872;28;20085;-58
2022/01/12 05:24:28;;;;;;;45.45;21.85;;;3.40;99.90;;;;;;5078894;28;20316;-58
2022/01/12 05:26:54;;;;;;;45.85;21.02;;;3.30;99.90;;;;;;5079620;28;20127;-59
2022/01/12 05:29:21;;;;;;;45.63;21.23;;;3.40;99.90;;;;;;5078743;28;20414;-59
2022/01/12 05:31:48;;;;;;;41.72;20.30;;;3.40;99.90;;;;;;5062279;28;20327;-58
2022/01/12 05:34:14;;;;;;;43.83;21.17;;;3.40;99.90;;;;;;5062172;28;20032;-59
2022/01/12 05:36:39;;;;;;;44.58;21.42;;;3.50;99.90;;;;;;5078699;28;20028;-59
2022/01/12 05:39:06;;;;;;;45.72;21.80;;;3.70;99.90;;;;;;5078428;28;20126;-59
2022/01/12 05:41:33;;;;;;;45.78;21.05;;;3.90;99.90;;;;;;5062025;28;20055;-59
2022/01/12 05:43:59;;;;;;;48.70;21.95;;;4.10;99.90;;;;;;5078595;28;20039;-59
2022/01/12 05:46:27;;;;;;;44.70;22.10;;;4.00;99.90;;;;;;5078393;28;20115;-59
2022/01/12 05:51:45;;;;;;;41.08;20.75;;;4.00;99.90;;;;;;5078365;28;20048;-59
2022/01/12 05:54:11;;;;;;;44.95;20.98;;;4.00;99.90;;;;;;5078458;28;20032;-59
2022/01/12 05:56:39;;;;;;;42.65;21.17;;;3.90;99.90;;;;;;5078280;28;20044;-59
2022/01/12 05:59:05;;;;;;;44.38;21.65;;;4.00;99.90;;;;;;5078143;28;20087;-59
2022/01/12 06:01:31;;;;;;;43.20;21.60;;;4.00;99.90;;;;;;5061491;28;20086;-60
2022/01/12 06:03:58;;;;;;;42.33;20.23;;;4.10;99.90;;;;;;5061478;28;20029;-60
2022/01/12 06:06:24;;;;;;;48.08;22.58;;;4.10;99.90;;;;;;5078765;28;20058;-60
2022/01/12 06:08:51;;;;;;;45.75;22.42;;;4.00;99.90;;;;;;5078011;28;20047;-58
2022/01/12 06:11:18;;;;;;;45.30;22.08;;;4.00;99.90;;;;;;5078000;28;20033;-60
2022/01/12 06:13:46;;;;;;;45.75;22.52;;;4.00;99.90;;;;;;5077837;28;20053;-60
2022/01/12 06:16:12;;;;;;;44.58;22.08;;;3.90;99.90;;;;;;5077859;28;20323;-58
2022/01/12 06:18:40;;;;;;;45.85;22.02;;;3.90;99.90;;;;;;5077787;28;20363;-59
2022/01/12 06:21:06;;;;;;;44.50;22.33;;;3.80;99.90;;;;;;5077000;28;20104;-59
2022/01/12 06:24:01;;;;;;;48.25;22.60;;;4.00;99.90;;;;;;5070752;28;20123;-58
2022/01/12 06:26:27;;;;;;;50.28;23.38;;;4.20;99.90;;;;;;5078838;28;20036;-59
2022/01/12 06:31:55;;;;;;;47.72;22.05;;;4.20;99.90;;;;;;5025755;28;20091;-59
2022/01/12 06:34:21;;;;;;;44.95;22.77;;;4.20;99.90;;;;;;5077641;28;20028;-59
2022/01/12 06:36:48;;;;;;;43.95;22.25;;;4.10;99.90;;;;;;5078050;28;20033;-58
2022/01/12 06:39:20;;;;;;;45.15;22.08;;;4.20;99.90;;;;;;5077387;28;20028;-58
2022/01/12 06:41:49;;;;;;;49.50;22.42;;;4.30;99.90;;;;;;5077467;28;20112;-58
2022/01/12 06:44:16;;;;;;;49.28;23.00;;;4.40;99.90;;;;;;5077330;28;20040;-60
2022/01/12 06:46:44;;;;;;;47.60;22.45;;;4.50;99.90;;;;;;5077328;28;20041;-57
2022/01/12 06:49:11;;;;;;;48.30;22.55;;;4.40;99.90;;;;;;5060601;28;20062;-59
2022/01/12 06:51:38;;;;;;;47.78;22.80;;;4.20;99.90;;;;;;5077801;28;20098;-59
2022/01/12 06:54:04;;;;;;;48.90;21.83;;;4.10;99.90;;;;;;5078188;28;20025;-58
2022/01/12 06:56:30;;;;;;;44.55;21.02;;;3.90;99.90;;;;;;5077141;28;20089;-59
2022/01/12 06:58:57;;;;;;;47.03;22.05;;;3.90;99.90;;;;;;5076973;28;20032;-60
2022/01/12 07:01:23;;;;;;;46.63;22.58;;;3.80;99.90;;;;;;5077116;28;20029;-61
2022/01/12 07:03:49;;;;;;;46.78;22.85;;;3.80;99.90;;;;;;5077064;28;20044;-58
2022/01/12 07:06:15;;;;;;;51.22;23.40;;;3.70;99.90;;;;;;5078011;28;20146;-58
2022/01/12 07:08:42;;;;;;;47.00;22.25;;;3.80;99.90;;;;;;5076806;28;20028;-60
2022/01/12 07:11:15;;;;;;;46.03;21.63;;;3.70;99.90;;;;;;5076758;28;20051;-58
2022/01/12 07:13:42;;;;;;;44.55;22.05;;;3.70;99.90;;;;;;5076745;28;20037;-59
2022/01/12 07:16:10;;;;;;;43.58;21.80;;;3.70;99.90;;;;;;5077048;28;20384;-59
2022/01/12 07:18:38;;;;;;;50.15;23.95;;;3.80;99.90;;;;;;5076885;28;20098;-59
2022/01/12 07:21:04;;;;;;;47.75;23.23;;;4.00;99.90;;;;;;5077411;28;20047;-59
2022/01/12 07:23:30;;;;;;;48.20;23.42;;;4.00;99.90;;;;;;5077369;28;20044;-59
2022/01/12 07:25:56;;;;;;;48.35;22.92;;;4.00;99.90;;;;;;5076734;28;20347;-60
2022/01/12 07:28:22;;;;;;;51.78;22.92;;;3.90;99.90;;;;;;5077279;28;20032;-59
2022/01/12 07:30:49;;;;;;;53.15;23.52;;;3.70;99.90;;;;;;5076219;28;20074;-58
2022/01/12 07:33:15;;;;;;;51.72;23.15;;;3.60;99.90;;;;;;5076488;28;20036;-59
2022/01/12 07:35:44;;;;;;;48.08;22.77;;;3.70;99.90;;;;;;5077299;28;20043;-59
2022/01/12 07:38:11;;;;;;;50.38;22.88;;;3.70;99.90;;;;;;5076899;28;20059;-60
2022/01/12 07:40:37;;;;;;;47.92;23.15;;;3.80;99.90;;;;;;5077164;28;20079;-60
2022/01/12 07:43:04;;;;;;;52.13;24.65;;;4.00;99.90;;;;;;5077471;28;20329;-59
2022/01/12 07:45:29;;;;;;;49.20;23.08;;;4.10;99.90;;;;;;5077028;28;20047;-61
2022/01/12 07:47:55;;;;;;;50.05;23.60;;;4.20;99.90;;;;;;5059576;28;20036;-59
2022/01/12 07:50:22;;;;;;;47.78;23.33;;;4.20;99.90;;;;;;5076873;28;20033;-59
2022/01/12 07:52:53;;;;;;;55.10;24.13;;;4.20;99.90;;;;;;5077285;28;20036;-60
2022/01/12 07:55:19;;;;;;;52.03;23.50;;;4.40;99.90;;;;;;5077026;28;20039;-59
2022/01/12 07:57:45;;;;;;;46.83;22.80;;;4.50;99.90;;;;;;5077278;28;20040;-59
2022/01/12 08:00:11;;;;;;;57.15;24.77;;;4.70;99.90;;;;;;5076876;28;20506;-59
2022/01/12 08:02:37;;;;;;;51.97;25.02;;;4.80;99.90;;;;;;5076677;28;20052;-59
2022/01/12 08:05:04;;;;;;;56.78;25.95;;;4.80;99.90;;;;;;5076815;28;20060;-59
2022/01/12 08:07:35;;;;;;;57.65;26.02;;;4.90;99.90;;;;;;5076279;28;20097;-59
2022/01/12 08:10:02;;;;;;;53.60;24.48;;;4.90;99.90;;;;;;5076795;28;20058;-59
2022/01/12 08:12:30;;;;;;;49.63;23.30;;;5.00;99.90;;;;;;5076655;28;20024;-60
2022/01/12 08:14:55;;;;;;;56.80;24.67;;;5.00;99.90;;;;;;5076234;28;20184;-60
2022/01/12 08:17:21;;;;;;;54.22;24.17;;;5.00;99.90;;;;;;5075757;28;20131;-60
2022/01/12 08:19:47;;;;;;;57.83;25.95;;;5.10;99.90;;;;;;5075832;28;20125;-60
2022/01/12 08:22:13;;;;;;;57.35;25.73;;;5.20;99.90;;;;;;5076540;28;20036;-59
2022/01/12 08:24:39;;;;;;;54.97;24.25;;;5.20;99.90;;;;;;5077094;28;20344;-60
2022/01/12 08:27:06;;;;;;;54.17;25.75;;;5.10;99.90;;;;;;5076328;28;20039;-59
2022/01/12 08:29:32;;;;;;;52.83;24.52;;;4.90;99.90;;;;;;5076565;28;20033;-59
2022/01/12 08:31:58;;;;;;;50.25;23.63;;;4.90;99.90;;;;;;5075630;28;20422;-59
2022/01/12 08:34:23;;;;;;;49.08;23.63;;;4.90;99.90;;;;;;5076433;28;20413;-59
2022/01/12 08:36:50;;;;;;;53.10;24.33;;;4.90;99.90;;;;;;5075543;28;20051;-60
2022/01/12 08:39:16;;;;;;;54.20;24.90;;;5.00;99.90;;;;;;5076533;28;20041;-60
2022/01/12 08:41:42;;;;;;;53.70;24.63;;;5.00;99.90;;;;;;5076536;28;20036;-59
2022/01/12 08:44:09;;;;;;;53.85;23.60;;;4.80;99.90;;;;;;5079437;28;20029;-59
2022/01/12 08:46:36;;;;;;;50.72;23.42;;;4.80;99.90;;;;;;5080697;28;20081;-59
2022/01/12 08:49:03;;;;;;;53.22;24.75;;;4.90;99.90;;;;;;5080319;28;20044;-58
2022/01/12 08:51:28;;;;;;;49.35;24.52;;;5.00;99.90;;;;;;5080187;28;20114;-59
2022/01/12 08:53:54;;;;;;;54.22;25.13;;;5.00;99.90;;;;;;5080484;28;20392;-59
2022/01/12 08:56:20;;;;;;;47.80;23.95;;;5.20;99.90;;;;;;5080209;28;20116;-59
2022/01/12 08:58:47;;;;;;;52.60;24.38;;;5.10;99.90;;;;;;5079429;28;20143;-59
2022/01/12 09:01:14;;;;;;;55.08;24.92;;;5.10;99.90;;;;;;5079215;28;20039;-59
2022/01/12 09:03:40;;;;;;;54.35;24.65;;;4.80;99.90;;;;;;5079984;28;20040;-59
2022/01/12 09:06:07;;;;;;;52.70;25.17;;;4.50;99.90;;;;;;5062634;28;20032;-58
2022/01/12 09:08:34;;;;;;;53.70;23.95;;;4.50;99.90;;;;;;5079868;28;20081;-58
2022/01/12 09:11:01;;;;;;;55.70;24.83;;;4.60;99.90;;;;;;5079848;28;20090;-58
2022/01/12 09:13:27;;;;;;;56.72;25.23;;;4.80;99.90;;;;;;5079810;28;20027;-58
2022/01/12 09:15:53;;;;;;;57.05;26.13;;;5.10;99.90;;;;;;5079191;28;20032;-58
2022/01/12 09:18:19;;;;;;;57.85;26.88;;;5.20;99.90;;;;;;5080062;28;20033;-58
2022/01/12 09:20:47;;;;;;;57.05;25.98;;;5.30;99.90;;;;;;5080134;28;20028;-58
2022/01/12 09:23:13;;;;;;;56.67;25.23;;;5.50;99.90;;;;;;5079563;28;20395;-58
2022/01/12 09:25:39;;;;;;;59.78;26.35;;;5.60;99.90;;;;;;5079583;28;20061;-58
2022/01/12 09:28:06;;;;;;;60.17;27.23;;;5.50;99.90;;;;;;5079493;28;20281;-58
2022/01/12 09:30:32;;;;;;;57.53;26.13;;;5.50;99.90;;;;;;5079436;28;20082;-58
2022/01/12 09:32:59;;;;;;;59.67;25.92;;;5.70;99.90;;;;;;5078605;28;20028;-58
2022/01/12 09:35:26;;;;;;;62.05;26.70;;;5.70;99.90;;;;;;5078532;28;20055;-57
2022/01/12 09:37:52;;;;;;;55.67;25.58;;;5.40;99.90;;;;;;5079013;28;20312;-57
2022/01/12 09:40:18;;;;;;;57.45;25.15;;;5.30;99.90;;;;;;5079046;28;20025;-58
2022/01/12 09:42:46;;;;;;;56.55;25.88;;;5.50;99.90;;;;;;5078407;28;20301;-58
2022/01/12 09:45:15;;;;;;;61.80;27.27;;;5.80;99.90;;;;;;5078529;28;20052;-58
2022/01/12 09:47:43;;;;;;;63.15;27.08;;;6.00;99.90;;;;;;5079121;28;20036;-59
2022/01/12 09:50:11;;;;;;;63.47;26.55;;;6.30;99.90;;;;;;5079146;28;20103;-59
2022/01/12 09:52:37;;;;;;;60.60;27.00;;;6.40;99.90;;;;;;5079065;28;20042;-58
2022/01/12 09:55:04;;;;;;;60.88;26.77;;;6.30;99.90;;;;;;5079048;28;20380;-58
2022/01/12 09:57:30;;;;;;;63.92;27.30;;;6.20;99.90;;;;;;5079091;28;20032;-58
2022/01/12 09:59:56;;;;;;;66.00;27.75;;;5.90;99.90;;;;;;5078316;28;20036;-58
2022/01/12 10:02:22;;;;;;;64.15;27.00;;;5.80;99.90;;;;;;5078277;28;20032;-58
2022/01/12 10:05:00;;;;;;;61.50;27.55;;;5.90;99.90;;;;;;5079534;28;20119;-58
2022/01/12 10:07:25;;;;;;;65.65;26.98;;;6.10;99.90;;;;;;5078983;28;20047;-59
2022/01/12 10:09:59;;;;;;;74.72;27.98;;;6.30;99.90;;;;;;5078129;28;20028;-60
2022/01/12 10:12:27;;;;;;;78.35;29.58;;;6.60;99.90;;;;;;5078763;28;20028;-58
2022/01/12 10:14:59;;;;;;;71.53;27.55;;;6.80;99.90;;;;;;5078108;28;20039;-58
2022/01/12 10:17:45;;;;;;;81.82;28.05;;;7.00;99.90;;;;;;5078651;28;20028;-59
2022/01/12 10:20:11;;;;;;;71.22;28.42;;;7.10;99.90;;;;;;5078313;28;20411;-59
2022/01/12 10:22:38;;;;;;;69.15;26.90;;;7.30;99.90;;;;;;5078635;28;20025;-59
2022/01/12 10:25:17;;;;;;;65.80;27.15;;;7.40;99.90;;;;;;5078653;28;20025;-59
2022/01/12 10:27:44;;;;;;;68.57;27.77;;;7.50;99.90;;;;;;5078352;28;20048;-59
2022/01/12 10:30:26;;;;;;;60.97;25.10;;;7.50;99.90;;;;;;5078543;28;20292;-59
2022/01/12 10:33:04;;;;;;;80.60;30.17;;;7.60;99.90;;;;;;5078391;28;20032;-59
2022/01/12 10:35:33;;;;;;;67.35;28.17;;;7.60;99.90;;;;;;5077751;28;20373;-59
2022/01/12 10:38:14;;;;;;;69.13;27.13;;;7.60;99.90;;;;;;5078132;28;20052;-59
2022/01/12 10:41:06;;;;;;;80.03;29.83;;;7.70;99.90;;;;;;5078846;28;20057;-59
2022/01/12 10:43:34;;;;;;;79.95;30.33;;;7.70;99.90;;;;;;5075460;28;20087;-58
2022/01/12 10:46:03;;;;;;;83.75;29.63;;;7.70;99.90;;;;;;5078150;28;20028;-58
2022/01/12 10:48:45;;;;;;;78.25;28.33;;;7.70;99.90;;;;;;5077297;28;20025;-58
2022/01/12 10:51:17;;;;;;;59.60;24.90;;;7.70;99.90;;;;;;5077440;28;20039;-57
2022/01/12 10:53:44;;;;;;;72.07;26.63;;;7.70;99.90;;;;;;5078102;28;20407;-59
2022/01/12 10:56:15;;;;;;;74.88;24.30;;;7.60;99.90;;;;;;5077856;28;20035;-58
2022/01/12 10:58:44;;;;;;;53.10;24.42;;;7.60;99.90;;;;;;5077951;28;20028;-59
2022/01/12 11:01:11;;;;;;;56.10;24.08;;;7.50;99.90;;;;;;5077818;28;20029;-58
2022/01/12 11:03:38;;;;;;;75.25;24.42;;;7.50;99.90;;;;;;5077177;28;20341;-59
2022/01/12 11:06:05;;;;;;;49.17;22.35;;;7.50;99.90;;;;;;5077384;28;20028;-58
2022/01/12 11:08:31;;;;;;;59.40;24.52;;;7.50;99.90;;;;;;5077895;28;20033;-58
2022/01/12 11:10:59;;;;;;;47.28;21.42;;;7.50;99.90;;;;;;5077550;28;20292;-59
2022/01/12 11:13:26;;;;;;;88.43;25.98;;;7.50;99.90;;;;;;5077813;28;20095;-58
2022/01/12 11:15:53;;;;;;;54.60;23.25;;;7.50;99.90;;;;;;5077481;28;20059;-59
2022/01/12 11:18:25;;;;;;;72.07;21.95;;;7.60;99.90;;;;;;5077449;28;20043;-58
2022/01/12 11:20:55;;;;;;;51.60;22.05;;;7.60;99.90;;;;;;5077508;28;20056;-58
2022/01/12 11:23:36;;;;;;;47.33;22.13;;;7.60;99.90;;;;;;5077747;28;20351;-58
2022/01/12 11:26:13;;;;;;;64.00;24.40;;;7.70;99.90;;;;;;5077369;28;20039;-58
2022/01/12 11:28:39;;;;;;;57.08;24.42;;;7.80;99.90;;;;;;5077266;28;20033;-59
2022/01/12 11:31:05;;;;;;;54.22;24.15;;;7.80;99.90;;;;;;5077246;28;20110;-58
2022/01/12 11:33:31;;;;;;;57.10;24.00;;;7.80;99.90;;;;;;5077183;28;20033;-59
2022/01/12 11:36:02;;;;;;;59.80;24.35;;;7.80;99.90;;;;;;5076322;28;20269;-59
2022/01/12 11:38:29;;;;;;;57.85;24.13;;;7.90;99.90;;;;;;5076901;28;20087;-58
2022/01/12 11:41:07;;;;;;;60.80;25.27;;;8.00;99.90;;;;;;5077072;28;20391;-59
2022/01/12 11:43:48;;;;;;;52.65;24.13;;;8.00;99.90;;;;;;5076930;28;20035;-58
2022/01/12 11:46:20;;;;;;;57.17;24.02;;;8.00;99.90;;;;;;5077614;28;20032;-58
2022/01/12 11:48:54;;;;;;;56.50;24.05;;;7.90;99.90;;;;;;5076813;28;20036;-58
2022/01/12 11:51:34;;;;;;;54.63;22.77;;;8.00;99.90;;;;;;5077333;28;20055;-58
2022/01/12 11:54:21;;;;;;;52.05;23.60;;;8.00;99.90;;;;;;5076056;28;20047;-58
2022/01/12 11:57:07;;;;;;;53.13;23.52;;;8.10;99.90;;;;;;5075440;28;20043;-59
2022/01/12 12:00:00;;;;;;;55.92;23.80;;;8.00;99.90;;;;;;5076845;28;20021;-59
2022/01/12 12:02:37;;;;;;;52.72;23.42;;;8.00;99.90;;;;;;5076815;28;20346;-58
2022/01/12 12:05:07;;;;;;;53.92;23.13;;;7.90;99.90;;;;;;5077358;28;20055;-59
2022/01/12 12:07:48;;;;;;;45.92;21.02;;;7.90;99.90;;;;;;5077036;28;20396;-58
2022/01/12 12:10:17;;;;;;;44.13;21.20;;;8.00;99.90;;;;;;5076754;28;20351;-58
2022/01/12 12:12:43;;;;;;;47.83;21.70;;;8.10;99.90;;;;;;5076716;28;20337;-58
2022/01/12 12:15:10;;;;;;;46.88;22.55;;;8.10;99.90;;;;;;5076738;28;20035;-58
2022/01/12 12:17:38;;;;;;;50.40;22.15;;;7.60;99.90;;;;;;5075704;28;20029;-58
2022/01/12 12:20:09;;;;;;;41.75;21.30;;;7.40;99.90;;;;;;5076744;28;20460;-58
2022/01/12 12:22:40;;;;;;;45.10;21.73;;;7.60;99.90;;;;;;5076916;28;20020;-58
2022/01/12 12:25:21;;;;;;;48.22;22.38;;;7.60;99.90;;;;;;5076619;28;20024;-58
2022/01/12 12:27:53;;;;;;;48.88;22.15;;;7.90;99.90;;;;;;5076895;28;20299;-58
2022/01/12 12:30:22;;;;;;;50.00;23.15;;;8.00;99.90;;;;;;5076596;28;20035;-58
2022/01/12 12:32:52;;;;;;;46.95;23.30;;;8.20;99.90;;;;;;5076543;28;20025;-58
2022/01/12 12:35:24;;;;;;;46.22;22.33;;;8.30;99.90;;;;;;5077148;28;20017;-59
2022/01/12 12:37:55;;;;;;;45.63;21.55;;;8.40;99.90;;;;;;5076358;28;20058;-59
2022/01/12 12:40:23;;;;;;;49.28;23.80;;;8.50;99.90;;;;;;5076598;28;20059;-59
2022/01/12 12:43:26;;;;;;;41.70;20.92;;;8.60;99.90;;;;;;5076492;28;20078;-59
2022/01/12 12:45:59;;;;;;;50.22;22.10;;;8.60;99.90;;;;;;5076553;28;20025;-60
2022/01/12 12:48:30;;;;;;;47.38;21.58;;;8.70;99.90;;;;;;5075498;28;20368;-58
2022/01/12 12:51:02;;;;;;;43.53;22.33;;;8.80;99.90;;;;;;5076181;28;20033;-57
2022/01/12 12:53:33;;;;;;;42.65;20.70;;;8.60;99.90;;;;;;5076158;28;20017;-57
2022/01/12 12:56:00;;;;;;;41.55;20.80;;;8.50;99.90;;;;;;5076307;28;20029;-57
2022/01/12 12:58:27;;;;;;;42.83;20.95;;;8.40;99.90;;;;;;5076565;28;20315;-57
2022/01/12 13:01:07;;;;;;;43.65;21.80;;;8.20;99.90;;;;;;5076346;28;20040;-58
2022/01/12 13:03:36;;;;;;;43.88;21.15;;;8.10;99.90;;;;;;5076371;28;20039;-57
2022/01/12 13:06:02;;;;;;;43.67;20.23;;;8.00;99.90;;;;;;5076314;28;20037;-58
2022/01/12 13:08:28;;;;;;;41.28;21.13;;;8.00;99.90;;;;;;5076051;28;20438;-58
2022/01/12 13:10:54;;;;;;;43.65;20.85;;;8.10;99.90;;;;;;5075458;28;20119;-58
2022/01/12 13:13:19;;;;;;;44.78;21.27;;;8.20;99.90;;;;;;5075483;28;20351;-58
2022/01/12 13:15:46;;;;;;;44.00;21.98;;;8.30;99.90;;;;;;5076113;28;20098;-58
2022/01/12 13:18:20;;;;;;;43.75;20.75;;;8.20;99.90;;;;;;5076139;28;20036;-58
2022/01/12 13:21:07;;;;;;;49.05;22.13;;;8.40;99.90;;;;;;5076098;28;20033;-58
2022/01/12 13:23:49;;;;;;;40.83;20.50;;;8.00;99.90;;;;;;5076083;28;20344;-59
2022/01/12 13:26:23;;;;;;;42.03;19.88;;;7.30;99.90;;;;;;5076109;28;20033;-58
2022/01/12 13:28:51;;;;;;;44.85;20.90;;;7.50;99.90;;;;;;5076810;28;20414;-59
2022/01/12 13:31:19;;;;;;;46.65;21.13;;;7.70;99.90;;;;;;5079048;28;20052;-58
2022/01/12 13:33:51;;;;;;;48.13;21.73;;;7.90;99.90;;;;;;5079446;28;20108;-59
2022/01/12 13:36:28;;;;;;;43.43;21.33;;;8.10;99.90;;;;;;5079838;28;20295;-58
2022/01/12 13:39:05;;;;;;;48.70;22.42;;;8.10;99.90;;;;;;5079060;28;20319;-59
2022/01/12 13:41:36;;;;;;;44.00;21.52;;;8.20;99.90;;;;;;5078323;28;20059;-58
2022/01/12 13:44:11;;;;;;;44.35;21.30;;;8.10;99.90;;;;;;5079286;28;20346;-59
2022/01/12 13:46:39;;;;;;;47.20;21.83;;;8.00;99.90;;;;;;5080021;28;20048;-58
2022/01/12 13:51:38;;;;;;;46.47;21.85;;;8.00;99.90;;;;;;5079136;28;20029;-58
2022/01/12 13:54:04;;;;;;;46.88;21.10;;;8.00;99.90;;;;;;5078467;28;20033;-58
2022/01/12 13:56:39;;;;;;;47.45;22.52;;;8.00;99.90;;;;;;5079075;28;20024;-58
2022/01/12 13:59:07;;;;;;;45.03;21.98;;;8.10;99.90;;;;;;5079353;28;20404;-59
2022/01/12 14:01:34;;;;;;;43.75;21.10;;;8.00;99.90;;;;;;5079273;28;20388;-59
2022/01/12 14:06:46;;;;;;;51.55;23.08;;;8.00;99.90;;;;;;5078377;28;20033;-59
2022/01/12 14:11:49;;;;;;;43.88;21.85;;;8.00;99.90;;;;;;5078954;28;20029;-58
2022/01/12 14:14:17;;;;;;;48.22;22.83;;;7.90;99.90;;;;;;5078759;28;20042;-58
2022/01/12 14:16:43;;;;;;;46.40;21.92;;;7.90;99.90;;;;;;5078789;28;20029;-58